AZU2601 SBEG-SBRF
Flight info
| Callsign | AZU2601 |
|---|---|
| Flight time | 4h 0m |
| Altitude | 37000 |
| Route | SIGEP UP527 KIMOK |
| Aircraft | A20N/M-SDE2E3FGHIRWXY/LB1 |
Departure
| Time | 2026-05-04 22:33 |
|---|---|
| Airport | Eduardo Gomes International Airport (SBEG) |
Arrival
| Time | 2026-05-05 02:34 |
|---|---|
| Airport | Recife/Guararapes - Gilberto Freyre International Airport (SBRF) |
| Time | Latitude | Longitude | Altitude | Speed | Heading |
|---|---|---|---|---|---|
| 2026-05-04 22:07 | -3.03275 | -60.04553 | 302 ft | 0 kts | 0° |
| 2026-05-04 22:24 | -3.03279 | -60.04553 | 302 ft | 3 kts | 350° |
| 2026-05-04 22:24 | -3.03298 | -60.04550 | 304 ft | 3 kts | 350° |
| 2026-05-04 22:24 | -3.03315 | -60.04545 | 302 ft | 3 kts | 307° |
| 2026-05-04 22:24 | -3.03320 | -60.04534 | 304 ft | 0 kts | 261° |
| 2026-05-04 22:27 | -3.03323 | -60.04539 | 304 ft | 4 kts | 236° |
| 2026-05-04 22:27 | -3.03352 | -60.04598 | 303 ft | 13 kts | 260° |
| 2026-05-04 22:28 | -3.03360 | -60.04736 | 301 ft | 22 kts | 253° |
| 2026-05-04 22:28 | -3.03444 | -60.04857 | 302 ft | 21 kts | 219° |
| 2026-05-04 22:28 | -3.03550 | -60.04955 | 303 ft | 21 kts | 235° |
| 2026-05-04 22:28 | -3.03602 | -60.05088 | 300 ft | 21 kts | 255° |
| 2026-05-04 22:29 | -3.03639 | -60.05227 | 301 ft | 21 kts | 255° |
| 2026-05-04 22:29 | -3.03673 | -60.05365 | 300 ft | 20 kts | 261° |
| 2026-05-04 22:29 | -3.03689 | -60.05507 | 300 ft | 20 kts | 268° |
| 2026-05-04 22:29 | -3.03690 | -60.05648 | 299 ft | 20 kts | 270° |
| 2026-05-04 22:30 | -3.03691 | -60.05788 | 299 ft | 20 kts | 269° |
| 2026-05-04 22:30 | -3.03692 | -60.05929 | 300 ft | 20 kts | 269° |
| 2026-05-04 22:30 | -3.03690 | -60.06070 | 299 ft | 20 kts | 273° |
| 2026-05-04 22:30 | -3.03741 | -60.06164 | 296 ft | 6 kts | 204° |
| 2026-05-04 22:31 | -3.03752 | -60.06168 | 298 ft | 0 kts | 196° |
| 2026-05-04 22:32 | -3.03762 | -60.06171 | 297 ft | 6 kts | 196° |
| 2026-05-04 22:32 | -3.03838 | -60.06159 | 300 ft | 13 kts | 139° |
| 2026-05-04 22:32 | -3.03855 | -60.06111 | 299 ft | 0 kts | 92° |
| 2026-05-04 22:32 | -3.03855 | -60.06103 | 299 ft | 8 kts | 92° |
| 2026-05-04 22:33 | -3.03858 | -60.05854 | 297 ft | 69 kts | 90° |
| 2026-05-04 22:33 | -3.03860 | -60.05153 | 299 ft | 130 kts | 90° |
| 2026-05-04 22:33 | -3.03840 | -60.04116 | 473 ft | 158 kts | 93° |
| 2026-05-04 22:33 | -3.03846 | -60.03036 | 1053 ft | 154 kts | 90° |
| 2026-05-04 22:34 | -3.03855 | -60.01962 | 1680 ft | 158 kts | 89° |
| 2026-05-04 22:34 | -3.03866 | -60.00754 | 1998 ft | 190 kts | 89° |
| 2026-05-04 22:34 | -3.04003 | -59.99330 | 2228 ft | 225 kts | 101° |
| 2026-05-04 22:34 | -3.04427 | -59.97719 | 2644 ft | 249 kts | 104° |
| 2026-05-04 22:35 | -3.04899 | -59.96042 | 3369 ft | 257 kts | 103° |
| 2026-05-04 22:35 | -3.05371 | -59.94311 | 4192 ft | 260 kts | 103° |
| 2026-05-04 22:35 | -3.05836 | -59.92549 | 5010 ft | 264 kts | 103° |
| 2026-05-04 22:35 | -3.06298 | -59.90759 | 5806 ft | 267 kts | 103° |
| 2026-05-04 22:36 | -3.06761 | -59.88947 | 6561 ft | 271 kts | 103° |
| 2026-05-04 22:36 | -3.07227 | -59.87113 | 7332 ft | 273 kts | 103° |
| 2026-05-04 22:36 | -3.07696 | -59.85260 | 8101 ft | 277 kts | 103° |
| 2026-05-04 22:36 | -3.08170 | -59.83380 | 8861 ft | 281 kts | 103° |
| 2026-05-04 22:37 | -3.08650 | -59.81474 | 9629 ft | 284 kts | 103° |
| 2026-05-04 22:37 | -3.09137 | -59.79538 | 10238 ft | 293 kts | 103° |
| 2026-05-04 22:37 | -3.09650 | -59.77497 | 10515 ft | 313 kts | 103° |
| 2026-05-04 22:37 | -3.10194 | -59.75329 | 10867 ft | 328 kts | 103° |
| 2026-05-04 22:38 | -3.10756 | -59.73094 | 11418 ft | 334 kts | 103° |
| 2026-05-04 22:38 | -3.11327 | -59.70829 | 12046 ft | 338 kts | 102° |
| 2026-05-04 22:38 | -3.11905 | -59.68532 | 12670 ft | 342 kts | 102° |
| 2026-05-04 22:38 | -3.12490 | -59.66209 | 13314 ft | 346 kts | 102° |
| 2026-05-04 22:39 | -3.13081 | -59.63861 | 13932 ft | 350 kts | 102° |
| 2026-05-04 22:39 | -3.13677 | -59.61490 | 14516 ft | 353 kts | 102° |
| 2026-05-04 22:39 | -3.14279 | -59.59097 | 15122 ft | 356 kts | 102° |
| 2026-05-04 22:39 | -3.14886 | -59.56682 | 15728 ft | 360 kts | 102° |
| 2026-05-04 22:40 | -3.15499 | -59.54243 | 16328 ft | 363 kts | 102° |
| 2026-05-04 22:40 | -3.16118 | -59.51782 | 16917 ft | 367 kts | 103° |
| 2026-05-04 22:40 | -3.16743 | -59.49294 | 17495 ft | 370 kts | 103° |
| 2026-05-04 22:40 | -3.17373 | -59.46787 | 18048 ft | 373 kts | 103° |
| 2026-05-04 22:41 | -3.18009 | -59.44257 | 18534 ft | 377 kts | 103° |
| 2026-05-04 22:41 | -3.18649 | -59.41708 | 19007 ft | 379 kts | 103° |
| 2026-05-04 22:41 | -3.19294 | -59.39141 | 19482 ft | 381 kts | 103° |
| 2026-05-04 22:41 | -3.19942 | -59.36563 | 19951 ft | 384 kts | 103° |
| 2026-05-04 22:42 | -3.20595 | -59.33964 | 20420 ft | 386 kts | 103° |
| 2026-05-04 22:42 | -3.21251 | -59.31351 | 20894 ft | 388 kts | 103° |
| 2026-05-04 22:42 | -3.21911 | -59.28722 | 21385 ft | 390 kts | 103° |
| 2026-05-04 22:42 | -3.22574 | -59.26080 | 21860 ft | 393 kts | 103° |
| 2026-05-04 22:43 | -3.23242 | -59.23422 | 22321 ft | 396 kts | 103° |
| 2026-05-04 22:43 | -3.23915 | -59.20739 | 22787 ft | 398 kts | 103° |
| 2026-05-04 22:43 | -3.24592 | -59.18043 | 23257 ft | 401 kts | 103° |
| 2026-05-04 22:43 | -3.25274 | -59.15326 | 23682 ft | 404 kts | 103° |
| 2026-05-04 22:44 | -3.25960 | -59.12589 | 24069 ft | 407 kts | 103° |
| 2026-05-04 22:44 | -3.26652 | -59.09832 | 24458 ft | 409 kts | 103° |
| 2026-05-04 22:44 | -3.27347 | -59.07063 | 24853 ft | 412 kts | 103° |
| 2026-05-04 22:44 | -3.28046 | -59.04274 | 25241 ft | 415 kts | 103° |
| 2026-05-04 22:45 | -3.28707 | -59.01460 | 25631 ft | 417 kts | 101° |
| 2026-05-04 22:45 | -3.29881 | -58.95750 | 26411 ft | 421 kts | 100° |
| 2026-05-04 22:45 | -3.30436 | -58.92906 | 26779 ft | 423 kts | 100° |
| 2026-05-04 22:46 | -3.31008 | -58.89971 | 27138 ft | 426 kts | 100° |
| 2026-05-04 22:46 | -3.31582 | -58.87052 | 27511 ft | 428 kts | 100° |
| 2026-05-04 22:46 | -3.32162 | -58.84126 | 27862 ft | 430 kts | 101° |
| 2026-05-04 22:46 | -3.32751 | -58.81177 | 28206 ft | 433 kts | 101° |
| 2026-05-04 22:47 | -3.33344 | -58.78220 | 28546 ft | 435 kts | 101° |
| 2026-05-04 22:47 | -3.33943 | -58.75244 | 28877 ft | 437 kts | 101° |
| 2026-05-04 22:47 | -3.34537 | -58.72291 | 29206 ft | 440 kts | 101° |
| 2026-05-04 22:47 | -3.35142 | -58.69284 | 29526 ft | 442 kts | 101° |
| 2026-05-04 22:48 | -3.35749 | -58.66262 | 29852 ft | 444 kts | 101° |
| 2026-05-04 22:48 | -3.36360 | -58.63226 | 30141 ft | 446 kts | 101° |
| 2026-05-04 22:48 | -3.36973 | -58.60173 | 30401 ft | 449 kts | 101° |
| 2026-05-04 22:48 | -3.37588 | -58.57109 | 30665 ft | 451 kts | 101° |
| 2026-05-04 22:49 | -3.38207 | -58.54027 | 30932 ft | 452 kts | 101° |
| 2026-05-04 22:49 | -3.38826 | -58.50940 | 31268 ft | 452 kts | 101° |
| 2026-05-04 22:49 | -3.39444 | -58.47862 | 31664 ft | 451 kts | 101° |
| 2026-05-04 22:49 | -3.40059 | -58.44796 | 32093 ft | 448 kts | 101° |
| 2026-05-04 22:50 | -3.40671 | -58.41748 | 32489 ft | 446 kts | 101° |
| 2026-05-04 22:50 | -3.41281 | -58.38704 | 32832 ft | 446 kts | 101° |
| 2026-05-04 22:50 | -3.41891 | -58.35665 | 33170 ft | 445 kts | 101° |
| 2026-05-04 22:50 | -3.42500 | -58.32627 | 33508 ft | 445 kts | 102° |
| 2026-05-04 22:51 | -3.43107 | -58.29598 | 33841 ft | 444 kts | 102° |
| 2026-05-04 22:51 | -3.43714 | -58.26571 | 34142 ft | 443 kts | 102° |
| 2026-05-04 22:51 | -3.44320 | -58.23546 | 34432 ft | 442 kts | 102° |
| 2026-05-04 22:51 | -3.44924 | -58.20531 | 34725 ft | 441 kts | 102° |
| 2026-05-04 22:52 | -3.45527 | -58.17521 | 34995 ft | 441 kts | 102° |
| 2026-05-04 22:52 | -3.46129 | -58.14515 | 35252 ft | 441 kts | 102° |
| 2026-05-04 22:52 | -3.46731 | -58.11508 | 35517 ft | 440 kts | 102° |
| 2026-05-04 22:52 | -3.47332 | -58.08506 | 35781 ft | 439 kts | 102° |
| 2026-05-04 22:53 | -3.47931 | -58.05513 | 36039 ft | 439 kts | 102° |
| 2026-05-04 22:53 | -3.48530 | -58.02521 | 36280 ft | 438 kts | 102° |
| 2026-05-04 22:53 | -3.49128 | -57.99536 | 36526 ft | 438 kts | 102° |
| 2026-05-04 22:53 | -3.49725 | -57.96549 | 36772 ft | 437 kts | 102° |
| 2026-05-04 22:54 | -3.50321 | -57.93568 | 36918 ft | 438 kts | 102° |
| 2026-05-04 22:54 | -3.50718 | -57.91586 | 36936 ft | 438 kts | 102° |
| 2026-05-04 22:54 | -3.51913 | -57.85609 | 36940 ft | 439 kts | 102° |
| 2026-05-04 22:55 | -3.53305 | -57.78647 | 36938 ft | 439 kts | 102° |
| 2026-05-04 22:55 | -3.54502 | -57.72659 | 36937 ft | 439 kts | 102° |
| 2026-05-04 22:56 | -3.55505 | -57.67639 | 36941 ft | 439 kts | 102° |
| 2026-05-04 22:56 | -3.56895 | -57.60678 | 36941 ft | 439 kts | 102° |
| 2026-05-04 22:57 | -3.57889 | -57.55695 | 36944 ft | 439 kts | 102° |
| 2026-05-04 22:57 | -3.59085 | -57.49705 | 36944 ft | 439 kts | 102° |
| 2026-05-04 22:58 | -3.60280 | -57.43711 | 36941 ft | 439 kts | 102° |
| 2026-05-04 22:58 | -3.61476 | -57.37717 | 36939 ft | 439 kts | 102° |
| 2026-05-04 22:59 | -3.62671 | -57.31719 | 36943 ft | 440 kts | 102° |
| 2026-05-04 22:59 | -3.63864 | -57.25711 | 36943 ft | 440 kts | 102° |
| 2026-05-04 23:00 | -3.65052 | -57.19699 | 36946 ft | 440 kts | 102° |
| 2026-05-04 23:00 | -3.66239 | -57.13695 | 36946 ft | 440 kts | 102° |
| 2026-05-04 23:01 | -3.67428 | -57.07688 | 36944 ft | 440 kts | 102° |
| 2026-05-04 23:01 | -3.68620 | -57.01664 | 36945 ft | 441 kts | 102° |
| 2026-05-04 23:02 | -3.69811 | -56.95638 | 36943 ft | 441 kts | 102° |
| 2026-05-04 23:02 | -3.71003 | -56.89608 | 36946 ft | 441 kts | 102° |
| 2026-05-04 23:03 | -3.72193 | -56.83581 | 36951 ft | 441 kts | 102° |
| 2026-05-04 23:03 | -3.73384 | -56.77552 | 36950 ft | 442 kts | 102° |
| 2026-05-04 23:04 | -3.74574 | -56.71521 | 36946 ft | 442 kts | 102° |
| 2026-05-04 23:04 | -3.75763 | -56.65493 | 36946 ft | 442 kts | 102° |
| 2026-05-04 23:05 | -3.76954 | -56.59458 | 36950 ft | 442 kts | 102° |
| 2026-05-04 23:05 | -3.78143 | -56.53428 | 36949 ft | 442 kts | 102° |
| 2026-05-04 23:06 | -3.79324 | -56.47434 | 36949 ft | 442 kts | 102° |
| 2026-05-04 23:06 | -3.80512 | -56.41403 | 36950 ft | 442 kts | 102° |
| 2026-05-04 23:07 | -3.81700 | -56.35373 | 36951 ft | 441 kts | 102° |
| 2026-05-04 23:07 | -3.82886 | -56.29347 | 36944 ft | 441 kts | 101° |
| 2026-05-04 23:08 | -3.84072 | -56.23322 | 36952 ft | 441 kts | 101° |
| 2026-05-04 23:08 | -3.85256 | -56.17300 | 36948 ft | 441 kts | 101° |
| 2026-05-04 23:09 | -3.86441 | -56.11273 | 36952 ft | 441 kts | 101° |
| 2026-05-04 23:09 | -3.87625 | -56.05249 | 36957 ft | 441 kts | 101° |
| 2026-05-04 23:10 | -3.88809 | -55.99224 | 36960 ft | 441 kts | 101° |
| 2026-05-04 23:10 | -3.89993 | -55.93196 | 36958 ft | 441 kts | 101° |
| 2026-05-04 23:11 | -3.91176 | -55.87174 | 36960 ft | 441 kts | 101° |
| 2026-05-04 23:11 | -3.92358 | -55.81151 | 36955 ft | 441 kts | 101° |
| 2026-05-04 23:12 | -3.93541 | -55.75120 | 36959 ft | 442 kts | 101° |
| 2026-05-04 23:12 | -3.94726 | -55.69078 | 36954 ft | 443 kts | 101° |
| 2026-05-04 23:13 | -3.95912 | -55.63024 | 36954 ft | 443 kts | 101° |
| 2026-05-04 23:13 | -3.97098 | -55.56972 | 36959 ft | 443 kts | 101° |
| 2026-05-04 23:14 | -3.98283 | -55.50922 | 36957 ft | 443 kts | 101° |
| 2026-05-04 23:14 | -3.99469 | -55.44868 | 36954 ft | 444 kts | 101° |
| 2026-05-04 23:15 | -4.00656 | -55.38802 | 36960 ft | 444 kts | 101° |
| 2026-05-04 23:15 | -4.01843 | -55.32737 | 36959 ft | 444 kts | 101° |
| 2026-05-04 23:16 | -4.03038 | -55.26675 | 36959 ft | 444 kts | 101° |
| 2026-05-04 23:16 | -4.04237 | -55.20609 | 36964 ft | 444 kts | 101° |
| 2026-05-04 23:17 | -4.05426 | -55.14594 | 36965 ft | 444 kts | 101° |
| 2026-05-04 23:17 | -4.06622 | -55.08530 | 36973 ft | 444 kts | 101° |
| 2026-05-04 23:18 | -4.07821 | -55.02456 | 36966 ft | 445 kts | 101° |
| 2026-05-04 23:18 | -4.09022 | -54.96361 | 36971 ft | 447 kts | 101° |
| 2026-05-04 23:19 | -4.10226 | -54.90249 | 36967 ft | 448 kts | 101° |
| 2026-05-04 23:19 | -4.11432 | -54.84126 | 36973 ft | 448 kts | 101° |
| 2026-05-04 23:20 | -4.12637 | -54.78005 | 36975 ft | 448 kts | 101° |
| 2026-05-04 23:20 | -4.13841 | -54.71888 | 36974 ft | 447 kts | 101° |
| 2026-05-04 23:21 | -4.15042 | -54.65782 | 36974 ft | 447 kts | 101° |
| 2026-05-04 23:21 | -4.16242 | -54.59679 | 36977 ft | 446 kts | 101° |
| 2026-05-04 23:22 | -4.17441 | -54.53579 | 36977 ft | 446 kts | 101° |
| 2026-05-04 23:22 | -4.18636 | -54.47476 | 36976 ft | 446 kts | 101° |
| 2026-05-04 23:23 | -4.19810 | -54.41379 | 36975 ft | 446 kts | 100° |
| 2026-05-04 23:23 | -4.20979 | -54.35280 | 36982 ft | 446 kts | 101° |
| 2026-05-04 23:24 | -4.22149 | -54.29176 | 36982 ft | 446 kts | 100° |
| 2026-05-04 23:24 | -4.23320 | -54.23079 | 36983 ft | 446 kts | 101° |
| 2026-05-04 23:25 | -4.24491 | -54.16975 | 36980 ft | 446 kts | 100° |
| 2026-05-04 23:25 | -4.25664 | -54.10863 | 36982 ft | 447 kts | 100° |
| 2026-05-04 23:26 | -4.26835 | -54.04754 | 36982 ft | 447 kts | 100° |
| 2026-05-04 23:26 | -4.28007 | -53.98643 | 36980 ft | 447 kts | 101° |
| 2026-05-04 23:27 | -4.29178 | -53.92529 | 36977 ft | 447 kts | 100° |
| 2026-05-04 23:27 | -4.30349 | -53.86415 | 36975 ft | 447 kts | 100° |
| 2026-05-04 23:28 | -4.31521 | -53.80293 | 36974 ft | 448 kts | 101° |
| 2026-05-04 23:28 | -4.32691 | -53.74179 | 36975 ft | 450 kts | 101° |
| 2026-05-04 23:29 | -4.33869 | -53.68019 | 36974 ft | 450 kts | 101° |
| 2026-05-04 23:29 | -4.35047 | -53.61855 | 36973 ft | 450 kts | 101° |
| 2026-05-04 23:30 | -4.36223 | -53.55699 | 36970 ft | 450 kts | 101° |
| 2026-05-04 23:30 | -4.37398 | -53.49535 | 36976 ft | 450 kts | 101° |
| 2026-05-04 23:31 | -4.38571 | -53.43374 | 36969 ft | 450 kts | 101° |
| 2026-05-04 23:31 | -4.39745 | -53.37212 | 36972 ft | 450 kts | 101° |
| 2026-05-04 23:32 | -4.40918 | -53.31052 | 36973 ft | 450 kts | 101° |
| 2026-05-04 23:32 | -4.42090 | -53.24891 | 36972 ft | 450 kts | 101° |
| 2026-05-04 23:33 | -4.43261 | -53.18735 | 36976 ft | 449 kts | 101° |
| 2026-05-04 23:33 | -4.44429 | -53.12591 | 36977 ft | 449 kts | 101° |
| 2026-05-04 23:34 | -4.45596 | -53.06451 | 36969 ft | 449 kts | 101° |
| 2026-05-04 23:34 | -4.46763 | -53.00306 | 36970 ft | 449 kts | 101° |
| 2026-05-04 23:35 | -4.47928 | -52.94167 | 36969 ft | 448 kts | 101° |
| 2026-05-04 23:35 | -4.49084 | -52.88075 | 36971 ft | 448 kts | 101° |
| 2026-05-04 23:36 | -4.50247 | -52.81944 | 36973 ft | 448 kts | 101° |
| 2026-05-04 23:36 | -4.51410 | -52.75812 | 36969 ft | 448 kts | 101° |
| 2026-05-04 23:37 | -4.52576 | -52.69691 | 36974 ft | 447 kts | 101° |
| 2026-05-04 23:37 | -4.53742 | -52.63573 | 36973 ft | 447 kts | 101° |
| 2026-05-04 23:38 | -4.54907 | -52.57453 | 36977 ft | 448 kts | 101° |
| 2026-05-04 23:38 | -4.56074 | -52.51317 | 36979 ft | 449 kts | 101° |
| 2026-05-04 23:39 | -4.57242 | -52.45177 | 36970 ft | 449 kts | 101° |
| 2026-05-04 23:39 | -4.58411 | -52.39025 | 36975 ft | 449 kts | 101° |
| 2026-05-04 23:40 | -4.59578 | -52.32882 | 36973 ft | 449 kts | 101° |
| 2026-05-04 23:40 | -4.60746 | -52.26731 | 36978 ft | 449 kts | 101° |
| 2026-05-04 23:41 | -4.61914 | -52.20575 | 36977 ft | 450 kts | 101° |
| 2026-05-04 23:41 | -4.63085 | -52.14406 | 36982 ft | 450 kts | 101° |
| 2026-05-04 23:42 | -4.64253 | -52.08243 | 36983 ft | 450 kts | 101° |
| 2026-05-04 23:42 | -4.65422 | -52.02077 | 36974 ft | 451 kts | 101° |
| 2026-05-04 23:43 | -4.66592 | -51.95899 | 36981 ft | 451 kts | 101° |
| 2026-05-04 23:43 | -4.67767 | -51.89727 | 36981 ft | 451 kts | 101° |
| 2026-05-04 23:44 | -4.68948 | -51.83555 | 36976 ft | 451 kts | 101° |
| 2026-05-04 23:44 | -4.70128 | -51.77381 | 36978 ft | 451 kts | 101° |
| 2026-05-04 23:45 | -4.71308 | -51.71208 | 36981 ft | 451 kts | 101° |
| 2026-05-04 23:45 | -4.72484 | -51.65041 | 36976 ft | 451 kts | 101° |
| 2026-05-04 23:46 | -4.73463 | -51.59913 | 36980 ft | 450 kts | 101° |
| 2026-05-04 23:46 | -4.74639 | -51.53744 | 36976 ft | 450 kts | 101° |
| 2026-05-04 23:47 | -4.75814 | -51.47580 | 36971 ft | 450 kts | 101° |
| 2026-05-04 23:47 | -4.76987 | -51.41418 | 36976 ft | 450 kts | 101° |
| 2026-05-04 23:48 | -4.78162 | -51.35248 | 36973 ft | 451 kts | 101° |
| 2026-05-04 23:48 | -4.79338 | -51.29070 | 36974 ft | 451 kts | 101° |
| 2026-05-04 23:49 | -4.80513 | -51.22892 | 36972 ft | 451 kts | 101° |
| 2026-05-04 23:49 | -4.81688 | -51.16711 | 36968 ft | 451 kts | 101° |
| 2026-05-04 23:50 | -4.82861 | -51.10536 | 36972 ft | 451 kts | 101° |
| 2026-05-04 23:50 | -4.84027 | -51.04357 | 36981 ft | 451 kts | 101° |
| 2026-05-04 23:51 | -4.85187 | -50.98174 | 36981 ft | 451 kts | 101° |
| 2026-05-04 23:51 | -4.86346 | -50.91995 | 36983 ft | 451 kts | 101° |
| 2026-05-04 23:52 | -4.87506 | -50.85811 | 36986 ft | 451 kts | 101° |
| 2026-05-04 23:52 | -4.88657 | -50.79673 | 36986 ft | 451 kts | 101° |
| 2026-05-04 23:53 | -4.89815 | -50.73494 | 36984 ft | 451 kts | 101° |
| 2026-05-04 23:53 | -4.90973 | -50.67313 | 36987 ft | 451 kts | 101° |
| 2026-05-04 23:54 | -4.92131 | -50.61133 | 36981 ft | 451 kts | 101° |
| 2026-05-04 23:54 | -4.93288 | -50.54950 | 36984 ft | 451 kts | 101° |
| 2026-05-04 23:55 | -4.94445 | -50.48763 | 36987 ft | 451 kts | 101° |
| 2026-05-04 23:56 | -4.96179 | -50.39485 | 36983 ft | 451 kts | 101° |
| 2026-05-04 23:56 | -4.97342 | -50.33301 | 36977 ft | 451 kts | 101° |
| 2026-05-04 23:57 | -4.98513 | -50.27117 | 36984 ft | 452 kts | 101° |
| 2026-05-04 23:57 | -4.99685 | -50.20925 | 36979 ft | 452 kts | 101° |
| 2026-05-04 23:58 | -5.00857 | -50.14725 | 36984 ft | 453 kts | 101° |
| 2026-05-04 23:58 | -5.02028 | -50.08522 | 36987 ft | 453 kts | 101° |
| 2026-05-04 23:59 | -5.03198 | -50.02321 | 36989 ft | 453 kts | 101° |
| 2026-05-04 23:59 | -5.04369 | -49.96115 | 36974 ft | 453 kts | 101° |
| 2026-05-05 00:00 | -5.05539 | -49.89908 | 36984 ft | 453 kts | 101° |
| 2026-05-05 00:00 | -5.06708 | -49.83705 | 36985 ft | 453 kts | 101° |
| 2026-05-05 00:01 | -5.07878 | -49.77494 | 36986 ft | 453 kts | 101° |
| 2026-05-05 00:01 | -5.09038 | -49.71328 | 36980 ft | 453 kts | 101° |
| 2026-05-05 00:02 | -5.10207 | -49.65115 | 36983 ft | 453 kts | 101° |
| 2026-05-05 00:02 | -5.11375 | -49.58905 | 36979 ft | 453 kts | 101° |
| 2026-05-05 00:03 | -5.12542 | -49.52689 | 36980 ft | 453 kts | 101° |
| 2026-05-05 00:03 | -5.13709 | -49.46475 | 36980 ft | 454 kts | 101° |
| 2026-05-05 00:04 | -5.14877 | -49.40255 | 36977 ft | 454 kts | 101° |
| 2026-05-05 00:04 | -5.16045 | -49.34030 | 36981 ft | 454 kts | 101° |
| 2026-05-05 00:05 | -5.17211 | -49.27810 | 36982 ft | 454 kts | 101° |
| 2026-05-05 00:05 | -5.18378 | -49.21583 | 36986 ft | 454 kts | 101° |
| 2026-05-05 00:06 | -5.19543 | -49.15358 | 36990 ft | 454 kts | 101° |
| 2026-05-05 00:06 | -5.20711 | -49.09121 | 36985 ft | 455 kts | 101° |
| 2026-05-05 00:07 | -5.21878 | -49.02881 | 36990 ft | 455 kts | 101° |
| 2026-05-05 00:07 | -5.23044 | -48.96644 | 36989 ft | 455 kts | 101° |
| 2026-05-05 00:08 | -5.24209 | -48.90411 | 36990 ft | 455 kts | 101° |
| 2026-05-05 00:08 | -5.25375 | -48.84168 | 36978 ft | 455 kts | 101° |
| 2026-05-05 00:09 | -5.26539 | -48.77932 | 36980 ft | 455 kts | 101° |
| 2026-05-05 00:09 | -5.27703 | -48.71691 | 36988 ft | 455 kts | 101° |
| 2026-05-05 00:10 | -5.28863 | -48.65447 | 36988 ft | 455 kts | 101° |
| 2026-05-05 00:10 | -5.29998 | -48.59206 | 36982 ft | 455 kts | 101° |
| 2026-05-05 00:11 | -5.31119 | -48.53002 | 36980 ft | 455 kts | 101° |
| 2026-05-05 00:11 | -5.32247 | -48.46760 | 36986 ft | 455 kts | 101° |
| 2026-05-05 00:12 | -5.33381 | -48.40521 | 36980 ft | 455 kts | 101° |
| 2026-05-05 00:12 | -5.34534 | -48.34282 | 36983 ft | 454 kts | 101° |
| 2026-05-05 00:13 | -5.35690 | -48.28049 | 36986 ft | 454 kts | 101° |
| 2026-05-05 00:13 | -5.36844 | -48.21817 | 36989 ft | 455 kts | 101° |
| 2026-05-05 00:14 | -5.37996 | -48.15581 | 36987 ft | 454 kts | 101° |
| 2026-05-05 00:14 | -5.39147 | -48.09346 | 36989 ft | 454 kts | 101° |
| 2026-05-05 00:15 | -5.40298 | -48.03110 | 36987 ft | 454 kts | 101° |
| 2026-05-05 00:15 | -5.41451 | -47.96870 | 36981 ft | 455 kts | 101° |
| 2026-05-05 00:16 | -5.42602 | -47.90638 | 36988 ft | 455 kts | 101° |
| 2026-05-05 00:16 | -5.43754 | -47.84397 | 36987 ft | 455 kts | 101° |
| 2026-05-05 00:17 | -5.44905 | -47.78156 | 36986 ft | 455 kts | 101° |
| 2026-05-05 00:17 | -5.46054 | -47.71921 | 36989 ft | 454 kts | 101° |
| 2026-05-05 00:18 | -5.47202 | -47.65691 | 36984 ft | 454 kts | 101° |
| 2026-05-05 00:18 | -5.48350 | -47.59458 | 36986 ft | 454 kts | 101° |
| 2026-05-05 00:19 | -5.49496 | -47.53229 | 36995 ft | 453 kts | 101° |
| 2026-05-05 00:19 | -5.50640 | -47.47007 | 36982 ft | 453 kts | 101° |
| 2026-05-05 00:20 | -5.51781 | -47.40782 | 36989 ft | 453 kts | 101° |
| 2026-05-05 00:20 | -5.52916 | -47.34560 | 36989 ft | 453 kts | 101° |
| 2026-05-05 00:21 | -5.54049 | -47.28345 | 36997 ft | 453 kts | 101° |
| 2026-05-05 00:21 | -5.55183 | -47.22127 | 36998 ft | 453 kts | 101° |
| 2026-05-05 00:22 | -5.56316 | -47.15906 | 36996 ft | 453 kts | 101° |
| 2026-05-05 00:22 | -5.57444 | -47.09716 | 36998 ft | 454 kts | 101° |
| 2026-05-05 00:23 | -5.58587 | -47.03438 | 36991 ft | 454 kts | 101° |
| 2026-05-05 00:23 | -5.59715 | -46.97234 | 36995 ft | 455 kts | 101° |
| 2026-05-05 00:24 | -5.60851 | -46.90985 | 36993 ft | 455 kts | 101° |
| 2026-05-05 00:24 | -5.61988 | -46.84727 | 36994 ft | 456 kts | 101° |
| 2026-05-05 00:25 | -5.63124 | -46.78470 | 36993 ft | 456 kts | 101° |
| 2026-05-05 00:25 | -5.64260 | -46.72207 | 36992 ft | 456 kts | 101° |
| 2026-05-05 00:26 | -5.65395 | -46.65947 | 37003 ft | 456 kts | 101° |
| 2026-05-05 00:26 | -5.66529 | -46.59690 | 37002 ft | 456 kts | 101° |
| 2026-05-05 00:27 | -5.67662 | -46.53435 | 36997 ft | 456 kts | 101° |
| 2026-05-05 00:27 | -5.68796 | -46.47173 | 36992 ft | 456 kts | 101° |
| 2026-05-05 00:28 | -5.69928 | -46.40911 | 37003 ft | 456 kts | 101° |
| 2026-05-05 00:28 | -5.71059 | -46.34654 | 36996 ft | 456 kts | 101° |
| 2026-05-05 00:29 | -5.72191 | -46.28385 | 37001 ft | 456 kts | 101° |
| 2026-05-05 00:29 | -5.73321 | -46.22116 | 37003 ft | 456 kts | 101° |
| 2026-05-05 00:30 | -5.74452 | -46.15844 | 36993 ft | 456 kts | 101° |
| 2026-05-05 00:30 | -5.75582 | -46.09570 | 37001 ft | 457 kts | 101° |
| 2026-05-05 00:31 | -5.76711 | -46.03297 | 36989 ft | 457 kts | 101° |
| 2026-05-05 00:31 | -5.77841 | -45.97018 | 37000 ft | 457 kts | 101° |
| 2026-05-05 00:32 | -5.78969 | -45.90740 | 36995 ft | 457 kts | 101° |
| 2026-05-05 00:32 | -5.80090 | -45.84499 | 36998 ft | 457 kts | 101° |
| 2026-05-05 00:33 | -5.81218 | -45.78217 | 37002 ft | 457 kts | 101° |
| 2026-05-05 00:33 | -5.82345 | -45.71935 | 36995 ft | 458 kts | 101° |
| 2026-05-05 00:34 | -5.83474 | -45.65641 | 36997 ft | 458 kts | 101° |
| 2026-05-05 00:34 | -5.84601 | -45.59348 | 37001 ft | 458 kts | 101° |
| 2026-05-05 00:35 | -5.85728 | -45.53058 | 36998 ft | 458 kts | 101° |
| 2026-05-05 00:35 | -5.86673 | -45.47778 | 36998 ft | 458 kts | 101° |
| 2026-05-05 00:36 | -5.87799 | -45.41478 | 36995 ft | 458 kts | 101° |
| 2026-05-05 00:36 | -5.88926 | -45.35175 | 37001 ft | 458 kts | 101° |
| 2026-05-05 00:37 | -5.90044 | -45.28916 | 37003 ft | 459 kts | 101° |
| 2026-05-05 00:37 | -5.91170 | -45.22608 | 36997 ft | 459 kts | 101° |
| 2026-05-05 00:38 | -5.92295 | -45.16302 | 37000 ft | 458 kts | 101° |
| 2026-05-05 00:38 | -5.93422 | -45.10008 | 37006 ft | 458 kts | 101° |
| 2026-05-05 00:39 | -5.94553 | -45.03707 | 37001 ft | 459 kts | 101° |
| 2026-05-05 00:39 | -5.95684 | -44.97400 | 37004 ft | 459 kts | 101° |
| 2026-05-05 00:40 | -5.96814 | -44.91092 | 37003 ft | 459 kts | 101° |
| 2026-05-05 00:40 | -5.97943 | -44.84785 | 37008 ft | 459 kts | 101° |
| 2026-05-05 00:41 | -5.99071 | -44.78475 | 37002 ft | 459 kts | 101° |
| 2026-05-05 00:41 | -6.00199 | -44.72164 | 37007 ft | 459 kts | 101° |
| 2026-05-05 00:42 | -6.01327 | -44.65848 | 37007 ft | 459 kts | 101° |
| 2026-05-05 00:42 | -6.02454 | -44.59530 | 37009 ft | 460 kts | 101° |
| 2026-05-05 00:43 | -6.03583 | -44.53203 | 37006 ft | 460 kts | 101° |
| 2026-05-05 00:43 | -6.04710 | -44.46875 | 37009 ft | 461 kts | 101° |
| 2026-05-05 00:44 | -6.05839 | -44.40538 | 37003 ft | 461 kts | 101° |
| 2026-05-05 00:44 | -6.06962 | -44.34201 | 37003 ft | 461 kts | 101° |
| 2026-05-05 00:45 | -6.08084 | -44.27857 | 37009 ft | 461 kts | 101° |
| 2026-05-05 00:45 | -6.09205 | -44.21512 | 37008 ft | 461 kts | 101° |
| 2026-05-05 00:46 | -6.10322 | -44.15167 | 37008 ft | 461 kts | 101° |
| 2026-05-05 00:46 | -6.11434 | -44.08818 | 37008 ft | 461 kts | 101° |
| 2026-05-05 00:47 | -6.12547 | -44.02466 | 37014 ft | 461 kts | 101° |
| 2026-05-05 00:47 | -6.13659 | -43.96115 | 37012 ft | 462 kts | 101° |
| 2026-05-05 00:48 | -6.14770 | -43.89767 | 37012 ft | 462 kts | 101° |
| 2026-05-05 00:48 | -6.15882 | -43.83408 | 37014 ft | 462 kts | 101° |
| 2026-05-05 00:49 | -6.16992 | -43.77054 | 37014 ft | 462 kts | 101° |
| 2026-05-05 00:49 | -6.18102 | -43.70696 | 37009 ft | 462 kts | 101° |
| 2026-05-05 00:50 | -6.19212 | -43.64333 | 37006 ft | 462 kts | 101° |
| 2026-05-05 00:50 | -6.20322 | -43.57969 | 37010 ft | 463 kts | 101° |
| 2026-05-05 00:51 | -6.21432 | -43.51599 | 37005 ft | 463 kts | 101° |
| 2026-05-05 00:51 | -6.22534 | -43.45272 | 37009 ft | 463 kts | 101° |
| 2026-05-05 00:52 | -6.23643 | -43.38901 | 37010 ft | 463 kts | 101° |
| 2026-05-05 00:52 | -6.24767 | -43.32526 | 37006 ft | 463 kts | 101° |
| 2026-05-05 00:53 | -6.25900 | -43.26157 | 37003 ft | 463 kts | 101° |
| 2026-05-05 00:53 | -6.27033 | -43.19781 | 36998 ft | 463 kts | 101° |
| 2026-05-05 00:54 | -6.28163 | -43.13407 | 37010 ft | 463 kts | 101° |
| 2026-05-05 00:54 | -6.29292 | -43.07035 | 37008 ft | 463 kts | 101° |
| 2026-05-05 00:55 | -6.30419 | -43.00663 | 37003 ft | 463 kts | 101° |
| 2026-05-05 00:55 | -6.31546 | -42.94290 | 37008 ft | 463 kts | 101° |
| 2026-05-05 00:56 | -6.32673 | -42.87910 | 37005 ft | 464 kts | 101° |
| 2026-05-05 00:56 | -6.33799 | -42.81531 | 37005 ft | 464 kts | 101° |
| 2026-05-05 00:57 | -6.34925 | -42.75147 | 37009 ft | 464 kts | 101° |
| 2026-05-05 00:57 | -6.36042 | -42.68810 | 37011 ft | 464 kts | 101° |
| 2026-05-05 00:58 | -6.37156 | -42.62427 | 37004 ft | 464 kts | 101° |
| 2026-05-05 00:58 | -6.38255 | -42.56042 | 37010 ft | 464 kts | 101° |
| 2026-05-05 00:59 | -6.39352 | -42.49656 | 37009 ft | 464 kts | 101° |
| 2026-05-05 00:59 | -6.40450 | -42.43267 | 37008 ft | 464 kts | 101° |
| 2026-05-05 01:00 | -6.41549 | -42.36875 | 37015 ft | 464 kts | 101° |
| 2026-05-05 01:00 | -6.42647 | -42.30482 | 37017 ft | 464 kts | 101° |
| 2026-05-05 01:01 | -6.43745 | -42.24086 | 37021 ft | 464 kts | 101° |
| 2026-05-05 01:01 | -6.44842 | -42.17688 | 37018 ft | 464 kts | 101° |
| 2026-05-05 01:02 | -6.45939 | -42.11289 | 37017 ft | 465 kts | 101° |
| 2026-05-05 01:02 | -6.47035 | -42.04891 | 37021 ft | 465 kts | 101° |
| 2026-05-05 01:03 | -6.48131 | -41.98485 | 37022 ft | 465 kts | 101° |
| 2026-05-05 01:03 | -6.49227 | -41.92079 | 37027 ft | 465 kts | 101° |
| 2026-05-05 01:04 | -6.50322 | -41.85670 | 37031 ft | 465 kts | 101° |
| 2026-05-05 01:04 | -6.51962 | -41.76061 | 37038 ft | 465 kts | 101° |
| 2026-05-05 01:05 | -6.53056 | -41.69650 | 37035 ft | 465 kts | 101° |
| 2026-05-05 01:05 | -6.54149 | -41.63236 | 37037 ft | 466 kts | 101° |
| 2026-05-05 01:06 | -6.55242 | -41.56818 | 37038 ft | 466 kts | 101° |
| 2026-05-05 01:06 | -6.56335 | -41.50392 | 37043 ft | 466 kts | 101° |
| 2026-05-05 01:07 | -6.57427 | -41.43969 | 37036 ft | 466 kts | 101° |
| 2026-05-05 01:07 | -6.58518 | -41.37546 | 37041 ft | 466 kts | 101° |
| 2026-05-05 01:08 | -6.59608 | -41.31124 | 37045 ft | 466 kts | 101° |
| 2026-05-05 01:08 | -6.60698 | -41.24695 | 37053 ft | 466 kts | 101° |
| 2026-05-05 01:09 | -6.61792 | -41.18262 | 37050 ft | 466 kts | 101° |
| 2026-05-05 01:09 | -6.62898 | -41.11885 | 37054 ft | 466 kts | 101° |
| 2026-05-05 01:10 | -6.64018 | -41.05460 | 37059 ft | 466 kts | 101° |
| 2026-05-05 01:10 | -6.65136 | -40.99036 | 37061 ft | 466 kts | 101° |
| 2026-05-05 01:11 | -6.66251 | -40.92615 | 37057 ft | 466 kts | 101° |
| 2026-05-05 01:11 | -6.67365 | -40.86186 | 37059 ft | 467 kts | 101° |
| 2026-05-05 01:12 | -6.68479 | -40.79755 | 37055 ft | 467 kts | 101° |
| 2026-05-05 01:12 | -6.69589 | -40.73318 | 37064 ft | 467 kts | 101° |
| 2026-05-05 01:13 | -6.70688 | -40.66881 | 37062 ft | 467 kts | 101° |
| 2026-05-05 01:13 | -6.71784 | -40.60439 | 37060 ft | 467 kts | 101° |
| 2026-05-05 01:14 | -6.72880 | -40.53998 | 37061 ft | 467 kts | 101° |
| 2026-05-05 01:14 | -6.73976 | -40.47555 | 37061 ft | 467 kts | 101° |
| 2026-05-05 01:15 | -6.75072 | -40.41112 | 37059 ft | 467 kts | 101° |
| 2026-05-05 01:15 | -6.76167 | -40.34669 | 37058 ft | 467 kts | 101° |
| 2026-05-05 01:16 | -6.77262 | -40.28224 | 37055 ft | 467 kts | 101° |
| 2026-05-05 01:16 | -6.78355 | -40.21781 | 37055 ft | 467 kts | 101° |
| 2026-05-05 01:17 | -6.79445 | -40.15342 | 37054 ft | 467 kts | 101° |
| 2026-05-05 01:17 | -6.80521 | -40.08900 | 37052 ft | 467 kts | 101° |
| 2026-05-05 01:18 | -6.81586 | -40.02461 | 37046 ft | 467 kts | 101° |
| 2026-05-05 01:18 | -6.82651 | -39.96016 | 37049 ft | 467 kts | 101° |
| 2026-05-05 01:19 | -6.83717 | -39.89572 | 37046 ft | 467 kts | 101° |
| 2026-05-05 01:19 | -6.84782 | -39.83135 | 37049 ft | 467 kts | 101° |
| 2026-05-05 01:20 | -6.85847 | -39.76691 | 37045 ft | 466 kts | 101° |
| 2026-05-05 01:20 | -6.86906 | -39.70255 | 37049 ft | 466 kts | 101° |
| 2026-05-05 01:21 | -6.87963 | -39.63813 | 37041 ft | 466 kts | 101° |
| 2026-05-05 01:21 | -6.89012 | -39.57419 | 37041 ft | 466 kts | 101° |
| 2026-05-05 01:22 | -6.90067 | -39.50981 | 37040 ft | 466 kts | 101° |
| 2026-05-05 01:22 | -6.91125 | -39.44543 | 37040 ft | 466 kts | 101° |
| 2026-05-05 01:23 | -6.92185 | -39.38107 | 37037 ft | 466 kts | 101° |
| 2026-05-05 01:23 | -6.93244 | -39.31673 | 37037 ft | 466 kts | 101° |
| 2026-05-05 01:24 | -6.94302 | -39.25239 | 37035 ft | 466 kts | 101° |
| 2026-05-05 01:24 | -6.95358 | -39.18809 | 37040 ft | 466 kts | 101° |
| 2026-05-05 01:25 | -6.96236 | -39.13460 | 37039 ft | 466 kts | 101° |
| 2026-05-05 01:25 | -6.97309 | -39.06992 | 37036 ft | 465 kts | 101° |
| 2026-05-05 01:26 | -6.98393 | -39.00618 | 37038 ft | 465 kts | 101° |
| 2026-05-05 01:26 | -6.99489 | -38.94194 | 37037 ft | 465 kts | 101° |
| 2026-05-05 01:27 | -7.00581 | -38.87776 | 37037 ft | 465 kts | 101° |
| 2026-05-05 01:27 | -7.01669 | -38.81360 | 37037 ft | 465 kts | 101° |
| 2026-05-05 01:28 | -7.02756 | -38.74941 | 37038 ft | 465 kts | 101° |
| 2026-05-05 01:28 | -7.03837 | -38.68521 | 37037 ft | 465 kts | 101° |
| 2026-05-05 01:29 | -7.04914 | -38.62103 | 37041 ft | 465 kts | 101° |
| 2026-05-05 01:29 | -7.05991 | -38.55688 | 37040 ft | 465 kts | 101° |
| 2026-05-05 01:30 | -7.07066 | -38.49275 | 37040 ft | 465 kts | 101° |
| 2026-05-05 01:30 | -7.08135 | -38.42860 | 37037 ft | 465 kts | 101° |
| 2026-05-05 01:31 | -7.09193 | -38.36442 | 37039 ft | 465 kts | 101° |
| 2026-05-05 01:31 | -7.10248 | -38.30027 | 37040 ft | 464 kts | 101° |
| 2026-05-05 01:32 | -7.11303 | -38.23610 | 37035 ft | 464 kts | 101° |
| 2026-05-05 01:32 | -7.12358 | -38.17197 | 37034 ft | 464 kts | 101° |
| 2026-05-05 01:33 | -7.13411 | -38.10784 | 37034 ft | 465 kts | 101° |
| 2026-05-05 01:33 | -7.14466 | -38.04364 | 37032 ft | 465 kts | 101° |
| 2026-05-05 01:34 | -7.15518 | -37.97947 | 37033 ft | 465 kts | 101° |
| 2026-05-05 01:34 | -7.16562 | -37.91568 | 37032 ft | 465 kts | 101° |
| 2026-05-05 01:35 | -7.17602 | -37.85147 | 37032 ft | 465 kts | 101° |
| 2026-05-05 01:35 | -7.18638 | -37.78720 | 37034 ft | 465 kts | 101° |
| 2026-05-05 01:36 | -7.19673 | -37.72299 | 37034 ft | 465 kts | 101° |
| 2026-05-05 01:36 | -7.20709 | -37.65869 | 37040 ft | 465 kts | 101° |
| 2026-05-05 01:37 | -7.21743 | -37.59444 | 37042 ft | 465 kts | 101° |
| 2026-05-05 01:37 | -7.22775 | -37.53011 | 37040 ft | 465 kts | 101° |
| 2026-05-05 01:38 | -7.23795 | -37.46582 | 37063 ft | 465 kts | 100° |
| 2026-05-05 01:38 | -7.24813 | -37.40149 | 37064 ft | 465 kts | 100° |
| 2026-05-05 01:39 | -7.25829 | -37.33716 | 37066 ft | 465 kts | 100° |
| 2026-05-05 01:39 | -7.26845 | -37.27285 | 37067 ft | 465 kts | 100° |
| 2026-05-05 01:40 | -7.27862 | -37.20852 | 37069 ft | 465 kts | 100° |
| 2026-05-05 01:40 | -7.28877 | -37.14420 | 37069 ft | 465 kts | 100° |
| 2026-05-05 01:41 | -7.29892 | -37.07984 | 37069 ft | 465 kts | 100° |
| 2026-05-05 01:41 | -7.30906 | -37.01546 | 37074 ft | 465 kts | 100° |
| 2026-05-05 01:42 | -7.31805 | -36.95094 | 37076 ft | 465 kts | 97° |
| 2026-05-05 01:42 | -7.32541 | -36.88658 | 37077 ft | 466 kts | 97° |
| 2026-05-05 01:43 | -7.33282 | -36.82177 | 37074 ft | 453 kts | 97° |
| 2026-05-05 01:43 | -7.33641 | -36.79076 | 37078 ft | 439 kts | 99° |
| 2026-05-05 01:43 | -7.34221 | -36.76106 | 37078 ft | 429 kts | 109° |
| 2026-05-05 01:44 | -7.35333 | -36.73343 | 37078 ft | 424 kts | 121° |
| 2026-05-05 01:44 | -7.36995 | -36.70915 | 37075 ft | 419 kts | 135° |
| 2026-05-05 01:44 | -7.39077 | -36.68948 | 37074 ft | 415 kts | 147° |
| 2026-05-05 01:44 | -7.41530 | -36.67451 | 37077 ft | 410 kts | 159° |
| 2026-05-05 01:45 | -7.44199 | -36.66501 | 37079 ft | 405 kts | 171° |
| 2026-05-05 01:45 | -7.46974 | -36.66118 | 37080 ft | 401 kts | 182° |
| 2026-05-05 01:45 | -7.49731 | -36.66291 | 37003 ft | 395 kts | 193° |
| 2026-05-05 01:45 | -7.52362 | -36.67009 | 36493 ft | 390 kts | 206° |
| 2026-05-05 01:46 | -7.54744 | -36.68276 | 36297 ft | 388 kts | 216° |
| 2026-05-05 01:46 | -7.56887 | -36.69934 | 36183 ft | 391 kts | 223° |
| 2026-05-05 01:46 | -7.58843 | -36.71849 | 36060 ft | 393 kts | 229° |
| 2026-05-05 01:46 | -7.60527 | -36.74017 | 35938 ft | 393 kts | 239° |
| 2026-05-05 01:47 | -7.61724 | -36.76479 | 35825 ft | 391 kts | 252° |
| 2026-05-05 01:47 | -7.62316 | -36.79150 | 35708 ft | 391 kts | 264° |
| 2026-05-05 01:47 | -7.62339 | -36.81892 | 35593 ft | 393 kts | 272° |
| 2026-05-05 01:47 | -7.62138 | -36.84645 | 35476 ft | 394 kts | 273° |
| 2026-05-05 01:48 | -7.61927 | -36.87406 | 35360 ft | 395 kts | 273° |
| 2026-05-05 01:48 | -7.61723 | -36.90166 | 35244 ft | 396 kts | 273° |
| 2026-05-05 01:48 | -7.61503 | -36.92933 | 35130 ft | 396 kts | 275° |
| 2026-05-05 01:48 | -7.61034 | -36.95671 | 35011 ft | 398 kts | 284° |
| 2026-05-05 01:49 | -7.60076 | -36.98294 | 34907 ft | 400 kts | 295° |
| 2026-05-05 01:49 | -7.58602 | -37.00684 | 34779 ft | 404 kts | 306° |
| 2026-05-05 01:49 | -7.56671 | -37.02757 | 34665 ft | 409 kts | 317° |
| 2026-05-05 01:49 | -7.54358 | -37.04425 | 34552 ft | 410 kts | 328° |
| 2026-05-05 01:50 | -7.51728 | -37.05553 | 34442 ft | 413 kts | 341° |
| 2026-05-05 01:50 | -7.48896 | -37.06093 | 34325 ft | 417 kts | 353° |
| 2026-05-05 01:50 | -7.45987 | -37.06103 | 34214 ft | 421 kts | 3° |
| 2026-05-05 01:50 | -7.43098 | -37.05584 | 34102 ft | 424 kts | 14° |
| 2026-05-05 01:51 | -7.40338 | -37.04513 | 33978 ft | 427 kts | 26° |
| 2026-05-05 01:51 | -7.37833 | -37.02898 | 33847 ft | 430 kts | 38° |
| 2026-05-05 01:51 | -7.35699 | -37.00790 | 33709 ft | 431 kts | 50° |
| 2026-05-05 01:51 | -7.34040 | -36.98274 | 33599 ft | 432 kts | 63° |
| 2026-05-05 01:52 | -7.32938 | -36.95464 | 33472 ft | 432 kts | 76° |
| 2026-05-05 01:52 | -7.32441 | -36.92494 | 33347 ft | 431 kts | 88° |
| 2026-05-05 01:52 | -7.32517 | -36.89486 | 33223 ft | 428 kts | 96° |
| 2026-05-05 01:52 | -7.32811 | -36.86514 | 33088 ft | 426 kts | 97° |
| 2026-05-05 01:53 | -7.33137 | -36.83553 | 32973 ft | 425 kts | 97° |
| 2026-05-05 01:53 | -7.33457 | -36.80635 | 32855 ft | 424 kts | 97° |
| 2026-05-05 01:53 | -7.33838 | -36.77698 | 32725 ft | 422 kts | 102° |
| 2026-05-05 01:53 | -7.34640 | -36.74830 | 32609 ft | 419 kts | 114° |
| 2026-05-05 01:54 | -7.35968 | -36.72242 | 32483 ft | 415 kts | 126° |
| 2026-05-05 01:54 | -7.37764 | -36.70041 | 32364 ft | 411 kts | 138° |
| 2026-05-05 01:54 | -7.40013 | -36.68239 | 32241 ft | 407 kts | 150° |
| 2026-05-05 01:54 | -7.42499 | -36.66993 | 32123 ft | 403 kts | 162° |
| 2026-05-05 01:55 | -7.45194 | -36.66290 | 32005 ft | 399 kts | 174° |
| 2026-05-05 01:55 | -7.47960 | -36.66144 | 31549 ft | 397 kts | 185° |
| 2026-05-05 01:55 | -7.50667 | -36.66578 | 31114 ft | 392 kts | 198° |
| 2026-05-05 01:55 | -7.53175 | -36.67633 | 30690 ft | 387 kts | 212° |
| 2026-05-05 01:56 | -7.55307 | -36.69238 | 30272 ft | 384 kts | 225° |
| 2026-05-05 01:56 | -7.57016 | -36.71289 | 29790 ft | 381 kts | 238° |
| 2026-05-05 01:56 | -7.58125 | -36.73693 | 29291 ft | 379 kts | 254° |
| 2026-05-05 01:56 | -7.58493 | -36.76309 | 28792 ft | 378 kts | 271° |
| 2026-05-05 01:57 | -7.58169 | -36.78932 | 28342 ft | 377 kts | 283° |
| 2026-05-05 01:57 | -7.57317 | -36.81409 | 28024 ft | 372 kts | 297° |
| 2026-05-05 01:57 | -7.56120 | -36.83680 | 27838 ft | 363 kts | 296° |
| 2026-05-05 01:57 | -7.54924 | -36.85881 | 27690 ft | 353 kts | 300° |
| 2026-05-05 01:58 | -7.53650 | -36.87961 | 27571 ft | 345 kts | 302° |
| 2026-05-05 01:58 | -7.52376 | -36.90004 | 27447 ft | 344 kts | 299° |
| 2026-05-05 01:58 | -7.51148 | -36.92069 | 27323 ft | 345 kts | 306° |
| 2026-05-05 01:58 | -7.49624 | -36.93935 | 27207 ft | 345 kts | 313° |
| 2026-05-05 01:59 | -7.47862 | -36.95565 | 27085 ft | 345 kts | 323° |
| 2026-05-05 01:59 | -7.45820 | -36.96815 | 26965 ft | 344 kts | 336° |
| 2026-05-05 01:59 | -7.43551 | -36.97555 | 26843 ft | 343 kts | 350° |
| 2026-05-05 01:59 | -7.41180 | -36.97718 | 26725 ft | 342 kts | 4° |
| 2026-05-05 02:00 | -7.38856 | -36.97282 | 26601 ft | 340 kts | 19° |
| 2026-05-05 02:00 | -7.36722 | -36.96276 | 26484 ft | 339 kts | 34° |
| 2026-05-05 02:00 | -7.34925 | -36.94764 | 26366 ft | 337 kts | 49° |
| 2026-05-05 02:00 | -7.33587 | -36.92844 | 26247 ft | 335 kts | 64° |
| 2026-05-05 02:01 | -7.32806 | -36.90647 | 26133 ft | 334 kts | 79° |
| 2026-05-05 02:01 | -7.32638 | -36.88328 | 26019 ft | 332 kts | 93° |
| 2026-05-05 02:01 | -7.32837 | -36.86010 | 25904 ft | 332 kts | 96° |
| 2026-05-05 02:01 | -7.33102 | -36.83693 | 25790 ft | 339 kts | 96° |
| 2026-05-05 02:02 | -7.33381 | -36.81247 | 25670 ft | 364 kts | 96° |
| 2026-05-05 02:02 | -7.33693 | -36.78638 | 25511 ft | 385 kts | 99° |
| 2026-05-05 02:02 | -7.34308 | -36.76002 | 25278 ft | 389 kts | 109° |
| 2026-05-05 02:02 | -7.35318 | -36.73473 | 25059 ft | 388 kts | 112° |
| 2026-05-05 02:03 | -7.36348 | -36.70968 | 24833 ft | 386 kts | 111° |
| 2026-05-05 02:03 | -7.37322 | -36.68456 | 24594 ft | 384 kts | 110° |
| 2026-05-05 02:03 | -7.38253 | -36.65932 | 24132 ft | 384 kts | 109° |
| 2026-05-05 02:03 | -7.39148 | -36.63417 | 23789 ft | 378 kts | 108° |
| 2026-05-05 02:04 | -7.40015 | -36.60936 | 23389 ft | 374 kts | 108° |
| 2026-05-05 02:04 | -7.40864 | -36.58475 | 22903 ft | 370 kts | 108° |
| 2026-05-05 02:04 | -7.41703 | -36.56031 | 22425 ft | 368 kts | 108° |
| 2026-05-05 02:04 | -7.42532 | -36.53606 | 21952 ft | 365 kts | 108° |
| 2026-05-05 02:05 | -7.43354 | -36.51200 | 21489 ft | 362 kts | 108° |
| 2026-05-05 02:05 | -7.44168 | -36.48812 | 21032 ft | 359 kts | 108° |
| 2026-05-05 02:05 | -7.44975 | -36.46441 | 20575 ft | 356 kts | 108° |
| 2026-05-05 02:05 | -7.45775 | -36.44092 | 20134 ft | 353 kts | 108° |
| 2026-05-05 02:06 | -7.46570 | -36.41758 | 19692 ft | 351 kts | 108° |
| 2026-05-05 02:06 | -7.47357 | -36.39445 | 19257 ft | 348 kts | 108° |
| 2026-05-05 02:06 | -7.48129 | -36.37175 | 18831 ft | 346 kts | 108° |
| 2026-05-05 02:06 | -7.48915 | -36.34864 | 18399 ft | 343 kts | 108° |
| 2026-05-05 02:07 | -7.49687 | -36.32595 | 17904 ft | 341 kts | 108° |
| 2026-05-05 02:07 | -7.50452 | -36.30345 | 17420 ft | 338 kts | 108° |
| 2026-05-05 02:07 | -7.51212 | -36.28110 | 16945 ft | 336 kts | 108° |
| 2026-05-05 02:07 | -7.51964 | -36.25897 | 16549 ft | 333 kts | 108° |
| 2026-05-05 02:08 | -7.52712 | -36.23694 | 16294 ft | 332 kts | 108° |
| 2026-05-05 02:08 | -7.53450 | -36.21524 | 16056 ft | 331 kts | 108° |
| 2026-05-05 02:08 | -7.54194 | -36.19332 | 15820 ft | 330 kts | 108° |
| 2026-05-05 02:08 | -7.54937 | -36.17146 | 15581 ft | 329 kts | 108° |
| 2026-05-05 02:09 | -7.55676 | -36.14969 | 15343 ft | 328 kts | 108° |
| 2026-05-05 02:09 | -7.56413 | -36.12798 | 15113 ft | 327 kts | 107° |
| 2026-05-05 02:09 | -7.57146 | -36.10640 | 14877 ft | 325 kts | 107° |
| 2026-05-05 02:09 | -7.57876 | -36.08487 | 14641 ft | 324 kts | 107° |
| 2026-05-05 02:10 | -7.58604 | -36.06343 | 14429 ft | 323 kts | 107° |
| 2026-05-05 02:10 | -7.59330 | -36.04204 | 14201 ft | 322 kts | 107° |
| 2026-05-05 02:10 | -7.60052 | -36.02073 | 13976 ft | 321 kts | 107° |
| 2026-05-05 02:10 | -7.60771 | -35.99953 | 13733 ft | 319 kts | 107° |
| 2026-05-05 02:11 | -7.61487 | -35.97840 | 13487 ft | 318 kts | 107° |
| 2026-05-05 02:11 | -7.62200 | -35.95737 | 13232 ft | 316 kts | 108° |
| 2026-05-05 02:11 | -7.62909 | -35.93647 | 12980 ft | 315 kts | 108° |
| 2026-05-05 02:11 | -7.63615 | -35.91563 | 12731 ft | 313 kts | 108° |
| 2026-05-05 02:12 | -7.64317 | -35.89493 | 12484 ft | 311 kts | 108° |
| 2026-05-05 02:12 | -7.65709 | -35.85382 | 11987 ft | 308 kts | 108° |
| 2026-05-05 02:12 | -7.66400 | -35.83342 | 11755 ft | 307 kts | 108° |
| 2026-05-05 02:13 | -7.67086 | -35.81315 | 11523 ft | 305 kts | 108° |
| 2026-05-05 02:13 | -7.67770 | -35.79294 | 11282 ft | 304 kts | 108° |
| 2026-05-05 02:13 | -7.68450 | -35.77286 | 11046 ft | 302 kts | 108° |
| 2026-05-05 02:13 | -7.68899 | -35.75962 | 10891 ft | 301 kts | 108° |
| 2026-05-05 02:14 | -7.69573 | -35.73967 | 10647 ft | 300 kts | 109° |
| 2026-05-05 02:14 | -7.70246 | -35.71978 | 10425 ft | 299 kts | 109° |
| 2026-05-05 02:14 | -7.71140 | -35.69336 | 10113 ft | 297 kts | 109° |
| 2026-05-05 02:14 | -7.71580 | -35.68036 | 9963 ft | 294 kts | 109° |
| 2026-05-05 02:15 | -7.72218 | -35.66116 | 9716 ft | 284 kts | 107° |
| 2026-05-05 02:15 | -7.72609 | -35.64186 | 9464 ft | 279 kts | 96° |
| 2026-05-05 02:15 | -7.72601 | -35.62230 | 9213 ft | 280 kts | 88° |
| 2026-05-05 02:15 | -7.72448 | -35.60274 | 8958 ft | 280 kts | 86° |
| 2026-05-05 02:16 | -7.72272 | -35.58319 | 8720 ft | 280 kts | 86° |
| 2026-05-05 02:16 | -7.72096 | -35.56373 | 8479 ft | 278 kts | 87° |
| 2026-05-05 02:16 | -7.71923 | -35.54432 | 8230 ft | 278 kts | 87° |
| 2026-05-05 02:16 | -7.71753 | -35.52491 | 7986 ft | 278 kts | 87° |
| 2026-05-05 02:17 | -7.71585 | -35.50551 | 7750 ft | 278 kts | 87° |
| 2026-05-05 02:17 | -7.71417 | -35.48619 | 7512 ft | 276 kts | 88° |
| 2026-05-05 02:17 | -7.71251 | -35.46699 | 7269 ft | 274 kts | 88° |
| 2026-05-05 02:17 | -7.71086 | -35.44792 | 7036 ft | 273 kts | 88° |
| 2026-05-05 02:18 | -7.70921 | -35.42884 | 6804 ft | 273 kts | 88° |
| 2026-05-05 02:18 | -7.70757 | -35.40986 | 6563 ft | 271 kts | 88° |
| 2026-05-05 02:18 | -7.70594 | -35.39092 | 6335 ft | 271 kts | 88° |
| 2026-05-05 02:18 | -7.70430 | -35.37200 | 6095 ft | 270 kts | 88° |
| 2026-05-05 02:19 | -7.70266 | -35.35325 | 5841 ft | 268 kts | 88° |
| 2026-05-05 02:19 | -7.70107 | -35.33454 | 5589 ft | 268 kts | 89° |
| 2026-05-05 02:19 | -7.69944 | -35.31583 | 5356 ft | 267 kts | 89° |
| 2026-05-05 02:19 | -7.69780 | -35.29728 | 5113 ft | 265 kts | 89° |
| 2026-05-05 02:20 | -7.69624 | -35.27882 | 4916 ft | 264 kts | 90° |
| 2026-05-05 02:20 | -7.69464 | -35.26040 | 4789 ft | 263 kts | 89° |
| 2026-05-05 02:20 | -7.69302 | -35.24205 | 4673 ft | 263 kts | 89° |
| 2026-05-05 02:20 | -7.69142 | -35.22366 | 4546 ft | 263 kts | 89° |
| 2026-05-05 02:21 | -7.68981 | -35.20529 | 4419 ft | 263 kts | 88° |
| 2026-05-05 02:21 | -7.68820 | -35.18698 | 4299 ft | 262 kts | 89° |
| 2026-05-05 02:21 | -7.68659 | -35.16868 | 4183 ft | 262 kts | 89° |
| 2026-05-05 02:21 | -7.68500 | -35.15041 | 4060 ft | 262 kts | 89° |
| 2026-05-05 02:22 | -7.68340 | -35.13215 | 3932 ft | 261 kts | 89° |
| 2026-05-05 02:22 | -7.68180 | -35.11392 | 3806 ft | 261 kts | 89° |
| 2026-05-05 02:22 | -7.68158 | -35.09574 | 3691 ft | 256 kts | 101° |
| 2026-05-05 02:22 | -7.68690 | -35.07897 | 3569 ft | 249 kts | 122° |
| 2026-05-05 02:23 | -7.69809 | -35.06596 | 3444 ft | 246 kts | 144° |
| 2026-05-05 02:23 | -7.71320 | -35.05806 | 3338 ft | 246 kts | 159° |
| 2026-05-05 02:23 | -7.72943 | -35.05257 | 3216 ft | 246 kts | 162° |
| 2026-05-05 02:23 | -7.74573 | -35.04751 | 3092 ft | 244 kts | 162° |
| 2026-05-05 02:24 | -7.76147 | -35.04262 | 3011 ft | 233 kts | 162° |
| 2026-05-05 02:24 | -7.77638 | -35.03794 | 2987 ft | 216 kts | 162° |
| 2026-05-05 02:24 | -7.78999 | -35.03363 | 3025 ft | 194 kts | 161° |
| 2026-05-05 02:24 | -7.80222 | -35.02974 | 3004 ft | 175 kts | 161° |
| 2026-05-05 02:25 | -7.81372 | -35.02645 | 2994 ft | 170 kts | 168° |
| 2026-05-05 02:25 | -7.82507 | -35.02324 | 2991 ft | 168 kts | 160° |
| 2026-05-05 02:25 | -7.83536 | -35.01976 | 2981 ft | 143 kts | 161° |
| 2026-05-05 02:25 | -7.84423 | -35.01684 | 2993 ft | 129 kts | 161° |
| 2026-05-05 02:26 | -7.85272 | -35.01403 | 2995 ft | 128 kts | 161° |
| 2026-05-05 02:26 | -7.86114 | -35.01120 | 3010 ft | 127 kts | 160° |
| 2026-05-05 02:26 | -7.86948 | -35.00836 | 2903 ft | 127 kts | 161° |
| 2026-05-05 02:26 | -7.87787 | -35.00552 | 2784 ft | 127 kts | 161° |
| 2026-05-05 02:27 | -7.88622 | -35.00269 | 2666 ft | 126 kts | 161° |
| 2026-05-05 02:27 | -7.89455 | -34.99990 | 2533 ft | 126 kts | 161° |
| 2026-05-05 02:27 | -7.90288 | -34.99713 | 2420 ft | 126 kts | 161° |
| 2026-05-05 02:27 | -7.91094 | -34.99447 | 2335 ft | 120 kts | 161° |
| 2026-05-05 02:28 | -7.91889 | -34.99186 | 2212 ft | 120 kts | 161° |
| 2026-05-05 02:28 | -7.92693 | -34.98921 | 2091 ft | 123 kts | 162° |
| 2026-05-05 02:28 | -7.93506 | -34.98653 | 1971 ft | 123 kts | 162° |
| 2026-05-05 02:28 | -7.94318 | -34.98385 | 1841 ft | 122 kts | 162° |
| 2026-05-05 02:29 | -7.95125 | -34.98118 | 1816 ft | 122 kts | 162° |
| 2026-05-05 02:29 | -7.95930 | -34.97851 | 1764 ft | 122 kts | 161° |
| 2026-05-05 02:29 | -7.96743 | -34.97581 | 1714 ft | 124 kts | 160° |
| 2026-05-05 02:29 | -7.97561 | -34.97310 | 1712 ft | 123 kts | 161° |
| 2026-05-05 02:30 | -7.98375 | -34.97040 | 1704 ft | 123 kts | 161° |
| 2026-05-05 02:30 | -7.99191 | -34.96771 | 1709 ft | 124 kts | 161° |
| 2026-05-05 02:30 | -8.00009 | -34.96500 | 1708 ft | 124 kts | 161° |
| 2026-05-05 02:30 | -8.00817 | -34.96232 | 1710 ft | 124 kts | 162° |
| 2026-05-05 02:31 | -8.01630 | -34.95961 | 1704 ft | 123 kts | 162° |
| 2026-05-05 02:31 | -8.02442 | -34.95693 | 1709 ft | 123 kts | 162° |
| 2026-05-05 02:31 | -8.03254 | -34.95424 | 1694 ft | 125 kts | 162° |
| 2026-05-05 02:31 | -8.04099 | -34.95145 | 1543 ft | 130 kts | 162° |
| 2026-05-05 02:32 | -8.04976 | -34.94854 | 1360 ft | 135 kts | 162° |
| 2026-05-05 02:32 | -8.05888 | -34.94552 | 1176 ft | 137 kts | 162° |
| 2026-05-05 02:32 | -8.06776 | -34.94258 | 1000 ft | 136 kts | 161° |
| 2026-05-05 02:32 | -8.07675 | -34.93959 | 828 ft | 136 kts | 162° |
| 2026-05-05 02:33 | -8.08571 | -34.93662 | 659 ft | 136 kts | 162° |
| 2026-05-05 02:33 | -8.09472 | -34.93365 | 458 ft | 135 kts | 160° |
| 2026-05-05 02:33 | -8.10354 | -34.93073 | 306 ft | 133 kts | 158° |
| 2026-05-05 02:33 | -8.11230 | -34.92782 | 121 ft | 132 kts | 159° |
| 2026-05-05 02:34 | -8.12086 | -34.92499 | 52 ft | 128 kts | 159° |
| 2026-05-05 02:34 | -8.12836 | -34.92249 | 43 ft | 80 kts | 161° |
| 2026-05-05 02:34 | -8.13162 | -34.92140 | 40 ft | 28 kts | 158° |
| 2026-05-05 02:34 | -8.13220 | -34.92096 | 39 ft | 10 kts | 131° |
| 2026-05-05 02:35 | -8.13266 | -34.92044 | 39 ft | 9 kts | 132° |
| 2026-05-05 02:35 | -8.13283 | -34.92026 | 40 ft | 0 kts | 132° |
| 2026-05-05 02:38 | -8.13289 | -34.92015 | 38 ft | 4 kts | 110° |
| 2026-05-05 02:38 | -8.13285 | -34.91985 | 40 ft | 5 kts | 64° |
| 2026-05-05 02:39 | -8.13251 | -34.91959 | 40 ft | 3 kts | 54° |
| 2026-05-05 02:39 | -8.13238 | -34.91934 | 40 ft | 5 kts | 70° |
| 2026-05-05 02:39 | -8.13231 | -34.91913 | 40 ft | 2 kts | 71° |
| 2026-05-05 02:39 | -8.13228 | -34.91905 | 40 ft | 2 kts | 71° |
| 2026-05-05 02:40 | -8.13227 | -34.91901 | 40 ft | 0 kts | 71° |